Flight Track Log - Related Links

Times and Time Zones

All times are in EDT time to prevent confusion due to time zone crossing. See the SWA720 flight status page for this flight to view local times or setup timezone preferences in your user account.

Time Position Orientation Groundspeed Altitude Reporting Facility
EDT Latitude Longitude Course Direction KTS MPH feet Rate Location/Type
Sat 08:57:35 AM 39.1500 -76.6500 142° Southeast 173 199 2,200  Level Potomac TRACON
Sat 08:58:36 AM 39.1000 -76.6000 142° Southeast 222 255 5,600 3,223 Climbing Potomac TRACON
Sat 08:59:36 AM 39.0500 -76.5500 142° Southeast 259 298 8,700 3,100 Climbing Potomac TRACON
Sat 09:00:36 AM 38.9667 -76.5000 155° Southeast 298 343 11,800 2,200 Climbing Potomac TRACON
Sat 09:01:36 AM 38.8833 -76.5167 189° South 344 396 13,100 650 Climbing Potomac TRACON
Sat 09:02:36 AM 38.8000 -76.5667 205° Southwest 361 415 13,100 429 Level Potomac TRACON
Sat 09:03:42 AM 38.6878 -76.6422 208° Southwest 387 445 14,000 429 Climbing Washington Center
Sat 09:04:42 AM 38.5975 -76.7019 207° Southwest 392 451 14,000  Level Washington Center
Sat 09:05:44 AM 38.4931 -76.7217 188° South 377 434 14,000  Level Washington Center
Sat 09:06:44 AM 38.3869 -76.7042 173° South 377 434 14,000  Level Washington Center
Sat 09:07:42 AM 38.2853 -76.6631 162° South 370 426 14,000  Level Washington Center
Sat 09:08:43 AM 38.1856 -76.6142 159° South 375 432 14,000  Level Washington Center
Sat 09:09:44 AM 38.0858 -76.5653 159° South 380 437 14,000  Level Washington Center
Sat 09:10:43 AM 37.9883 -76.5167 159° South 385 443 14,000  Level Washington Center
Sat 09:11:43 AM 37.8906 -76.4681 159° South 390 449 14,000  Level Washington Center
Sat 09:12:13 AM 37.8344 -76.4464 163° South 384 442 14,000  Level Washington Center
Sat 09:12:43 AM 37.8094 -76.4275 149° Southeast 390 449 14,000 -885 Level Washington Center
Sat 09:13:14 AM 37.7347 -76.3978 163° South 381 438 13,100 -1,672 Descending Washington Center
Sat 09:13:44 AM 37.6931 -76.3739 156° South 385 443 12,300 -2,111 Descending Washington Center
Sat 09:14:08 AM 37.6514 -76.3550 160° South 351 404 11,200 -1,862 Descending Washington Center
Sat 09:14:42 AM 37.6036 -76.3364 163° South 363 418 10,500 -984 Descending Washington Center
Sat 09:15:09 AM 37.5619 -76.3358 179° South 325 374 10,200 -500 Descending Washington Center
Sat 09:15:42 AM 37.5119 -76.3169 163° South 342 394 10,000 -300 Descending Washington Center
Sat 09:16:09 AM 37.4722 -76.3167 180° South 328 377 9,900  Descending Washington Center
Sat 09:16:42 AM 37.4244 -76.3031 167° South 330 380 10,000 122 Climbing Washington Center
Sat 09:16:58 AM 37.4056 -76.3056 186° South 308 354 10,000 -984 Level Washington Center
Sat 09:17:43 AM 37.3411 -76.2867 167° South 319 367 9,000 -1,524 Descending Washington Center
Sat 09:18:01 AM 37.3161 -76.2839 175° South 303 349 8,400 -1,500 Descending Washington Center
Sat 09:18:43 AM 37.2597 -76.2731 171° South 309 356 7,500 -1,500 Descending Washington Center
Sat 09:19:01 AM 37.2347 -76.2728 179° South 293 337 6,900 -1,574 Descending Washington Center
Sat 09:19:44 AM 37.1786 -76.2567 167° South 304 350 5,900 -1,522 Descending Washington Center
Sat 09:20:08 AM 37.1453 -76.2564 180° South 288 331 5,200 -900 Descending Washington Center
Sat 09:20:44 AM 37.1097 -76.2456 166° South 294 338 5,000 -200 Descending Washington Center
Sat 09:21:08 AM 37.0744 -76.2400 173° South 244 281 5,000  Level Washington Center
Sat 09:22:09 AM 37.0117 -76.2267 170° South 224 258 5,000  Level Washington Center
Sat 09:23:04 AM 36.9636 -76.2444 196° South 221 254 5,000  Level Washington Center
Sat 09:24:02 AM 36.9156 -76.2958 221° Southwest 216 249 5,000  Level Washington Center
Sat 09:25:06 AM 36.8733 -76.3553 228° Southwest 217 250 5,000 -244 Level Washington Center
Sat 09:26:05 AM 36.8272 -76.3989 217° Southwest 218 251 4,500 -722 Descending Washington Center
Sat 09:27:19 AM 36.7667 -76.3956 177° South 196 226 3,400 -844 Descending Washington Center
Sat 09:28:13 AM 36.7628 -76.3411 95° East 188 216 2,700 -694 Descending Washington Center
Sat 09:29:20 AM 36.7986 -76.2947 46° Northeast 167 192 2,000 -614 Descending Washington Center
Sat 09:30:20 AM 36.8342 -76.2642 35° Northeast 150 173 1,400 -678 Descending Washington Center
Sat 09:31:15 AM 36.8617 -76.2383 37° Northeast 134 154 700 -764 Descending Washington Center

Login

Don't have an account? Register now (free) for customized features, flight alerts, and more!